Time;durP1;ratioP1;P1;durP2;ratioP2;P2;SDS_P1;SDS_P2;PMS_P1;PMS_P2;Temp;Humidity;BMP_temperature;BMP_pressure;BME280_temperature;BME280_humidity;BME280_pressure;Samples;Min_cycle;Max_cycle;Signal;HPM_P1;HPM_P2
2023/10/14 00:01:06;;;;;;;4.40;2.17;;;22.90;71.40;;;;;;5103107;28;20118;-86
2023/10/14 00:03:35;;;;;;;3.60;2.05;;;22.90;71.30;;;;;;5097824;28;20034;-86
2023/10/14 00:06:08;;;;;;;4.70;2.00;;;22.90;71.20;;;;;;5100761;28;20032;-84
2023/10/14 00:09:43;;;;;;;2.50;1.83;;;23.00;71.30;;;;;;5113815;28;20053;-86
2023/10/14 00:11:43;;;;;;;4.90;2.15;;;23.00;71.60;;;;;;5083933;28;20059;-85
2023/10/14 00:14:16;;;;;;;9.48;2.53;;;23.00;71.60;;;;;;5088418;28;20028;-84
2023/10/14 00:16:49;;;;;;;4.50;2.40;;;23.00;71.90;;;;;;5092294;28;20123;-85
2023/10/14 00:19:15;;;;;;;6.57;2.00;;;23.00;71.80;;;;;;5103385;28;20031;-87
2023/10/14 00:21:42;;;;;;;4.47;2.10;;;23.00;72.00;;;;;;5113339;28;20027;-86
2023/10/14 00:24:08;;;;;;;7.82;2.33;;;23.00;72.20;;;;;;5100794;28;20030;-86
2023/10/14 00:26:34;;;;;;;5.00;2.40;;;23.00;72.50;;;;;;5116697;28;20114;-87
2023/10/14 00:31:54;;;;;;;5.45;2.33;;;23.00;73.00;;;;;;5077834;28;20123;-86
2023/10/14 00:34:22;;;;;;;14.68;2.85;;;23.00;73.60;;;;;;5116526;28;20143;-87
2023/10/14 00:36:49;;;;;;;7.60;2.22;;;23.00;73.60;;;;;;5096825;28;20111;-86
2023/10/14 00:39:16;;;;;;;7.82;2.83;;;23.00;73.90;;;;;;5109665;28;20027;-87
2023/10/14 00:41:50;;;;;;;6.63;2.47;;;23.00;74.10;;;;;;5100441;28;20020;-87
2023/10/14 00:44:16;;;;;;;7.10;2.55;;;23.00;74.30;;;;;;5111150;28;20121;-87
2023/10/14 00:46:48;;;;;;;5.25;2.60;;;23.00;74.40;;;;;;5105968;28;20079;-87
2023/10/14 00:49:15;;;;;;;4.57;2.55;;;23.00;74.70;;;;;;5103740;28;20020;-85
2023/10/14 00:51:45;;;;;;;9.63;2.65;;;23.00;75.00;;;;;;5111957;28;20042;-85
2023/10/14 00:54:12;;;;;;;8.27;2.60;;;23.00;75.20;;;;;;5100019;28;20372;-88
2023/10/14 00:56:42;;;;;;;6.80;2.58;;;23.00;75.20;;;;;;5107672;28;20031;-85
2023/10/14 00:59:09;;;;;;;5.57;2.72;;;23.00;75.40;;;;;;5095475;28;20093;-85
2023/10/14 01:01:55;;;;;;;7.18;2.40;;;23.00;75.60;;;;;;5097009;28;20046;-87
2023/10/14 01:04:31;;;;;;;6.40;2.50;;;23.00;75.80;;;;;;5087126;28;20146;-86
2023/10/14 01:07:13;;;;;;;10.27;2.65;;;23.00;76.00;;;;;;5074550;28;20029;-87
2023/10/14 01:12:27;;;;;;;7.15;3.17;;;22.90;76.80;;;;;;5082718;28;20032;-84
2023/10/14 01:14:52;;;;;;;10.23;3.42;;;22.90;77.20;;;;;;5105133;28;20114;-85
2023/10/14 01:19:59;;;;;;;5.20;3.13;;;22.90;77.90;;;;;;5099423;28;20028;-86
2023/10/14 01:22:26;;;;;;;5.03;2.58;;;22.90;78.50;;;;;;5109031;28;20024;-87
2023/10/14 01:24:55;;;;;;;10.75;2.97;;;22.90;78.70;;;;;;5105850;28;20030;-87
2023/10/14 01:27:21;;;;;;;7.95;3.20;;;22.90;79.20;;;;;;5100100;28;20024;-86
2023/10/14 01:29:51;;;;;;;5.38;2.45;;;22.90;79.30;;;;;;5094334;28;20123;-81
2023/10/14 01:32:42;;;;;;;5.20;2.58;;;22.80;79.80;;;;;;5096049;28;20530;-84
2023/10/14 01:35:31;;;;;;;8.68;3.38;;;22.80;80.20;;;;;;5100309;28;20101;-85
2023/10/14 01:38:01;;;;;;;9.32;3.35;;;22.80;80.30;;;;;;5096866;28;20024;-84
2023/10/14 01:43:30;;;;;;;9.50;3.70;;;22.80;80.90;;;;;;5087369;28;20031;-88
2023/10/14 01:48:22;;;;;;;9.10;3.03;;;22.70;81.30;;;;;;5101852;28;20475;-88
2023/10/14 01:50:55;;;;;;;7.22;2.80;;;22.70;81.50;;;;;;5104961;28;20081;-84
2023/10/14 01:53:27;;;;;;;10.80;3.13;;;22.70;81.80;;;;;;5108919;28;20036;-86
2023/10/14 01:55:57;;;;;;;;;;;22.70;82.20;;;;;;5096696;28;20027;-86
2023/10/14 01:58:29;;;;;;;6.18;3.28;;;22.70;82.90;;;;;;5100846;28;19984;-87
2023/10/14 02:01:15;;;;;;;6.78;3.45;;;22.70;82.80;;;;;;5103718;28;20085;-86
2023/10/14 02:03:50;;;;;;;8.77;3.40;;;22.60;83.20;;;;;;5093959;28;20131;-85
2023/10/14 02:06:17;;;;;;;6.85;3.25;;;22.60;83.40;;;;;;5104398;28;20023;-84
2023/10/14 02:08:44;;;;;;;8.27;3.38;;;22.60;83.50;;;;;;5115708;28;20020;-80
2023/10/14 02:11:10;;;;;;;4.63;3.65;;;22.60;83.80;;;;;;5101436;28;20064;-86
2023/10/14 02:13:36;;;;;;;6.97;3.05;;;22.60;83.90;;;;;;5094186;28;20032;-85
2023/10/14 02:16:08;;;;;;;8.02;3.47;;;22.60;84.10;;;;;;5098067;28;20081;-85
2023/10/14 02:18:37;;;;;;;11.55;3.88;;;22.60;84.30;;;;;;5114677;28;20031;-85
2023/10/14 02:21:08;;;;;;;8.23;3.17;;;22.60;84.30;;;;;;5102977;28;20055;-84
2023/10/14 02:23:44;;;;;;;6.05;3.08;;;22.60;84.40;;;;;;5110259;28;20027;-86
2023/10/14 02:26:30;;;;;;;9.82;3.35;;;22.50;84.60;;;;;;5109705;28;20024;-86
2023/10/14 02:28:57;;;;;;;6.30;3.20;;;22.50;84.80;;;;;;5105334;28;20040;-85
2023/10/14 02:31:29;;;;;;;9.48;3.92;;;22.50;84.90;;;;;;5110757;28;20392;-84
2023/10/14 02:34:04;;;;;;;7.03;3.67;;;22.50;85.20;;;;;;5096245;28;20081;-84
2023/10/14 02:36:34;;;;;;;8.82;3.83;;;22.50;85.40;;;;;;5103418;28;20016;-85
2023/10/14 02:39:00;;;;;;;8.35;3.25;;;22.50;85.50;;;;;;5101638;28;20035;-86
2023/10/14 02:41:31;;;;;;;7.72;3.20;;;22.50;85.80;;;;;;5108472;28;20027;-85
2023/10/14 02:44:44;;;;;;;5.63;2.95;;;22.50;86.10;;;;;;5096115;28;20137;-85
2023/10/14 02:46:54;;;;;;;9.10;3.13;;;22.50;86.20;;;;;;5098408;28;20528;-79
2023/10/14 02:49:24;;;;;;;6.03;3.55;;;22.40;86.40;;;;;;5107479;28;20020;-84
2023/10/14 02:51:52;;;;;;;4.82;3.08;;;22.40;86.60;;;;;;5095719;28;20028;-85
2023/10/14 02:54:27;;;;;;;6.05;3.22;;;22.40;86.80;;;;;;5109254;28;20028;-87
2023/10/14 02:56:59;;;;;;;8.45;3.25;;;22.40;87.10;;;;;;5093121;28;20380;-86
2023/10/14 02:59:44;;;;;;;7.97;3.25;;;22.40;87.30;;;;;;5108078;28;20097;-85
2023/10/14 03:02:15;;;;;;;9.38;3.50;;;22.40;87.40;;;;;;5082024;28;20077;-84
2023/10/14 03:04:52;;;;;;;6.18;3.13;;;22.40;87.80;;;;;;5104722;28;20082;-84
2023/10/14 03:07:31;;;;;;;8.32;3.70;;;22.40;87.80;;;;;;5107284;28;20027;-86
2023/10/14 03:10:12;;;;;;;7.35;3.65;;;22.40;88.30;;;;;;5096821;28;20139;-85
2023/10/14 03:12:42;;;;;;;5.72;3.60;;;22.40;88.50;;;;;;5113043;28;20031;-86
2023/10/14 03:15:19;;;;;;;9.55;3.58;;;22.30;88.70;;;;;;5113010;28;20039;-86
2023/10/14 03:18:01;;;;;;;6.78;3.22;;;22.30;89.00;;;;;;5112409;28;20077;-78
2023/10/14 03:23:18;;;;;;;9.75;3.55;;;22.30;90.20;;;;;;5103102;28;20736;-84
2023/10/14 03:25:51;;;;;;;13.32;4.30;;;22.20;91.00;;;;;;5110358;28;20019;-82
2023/10/14 03:28:24;;;;;;;9.88;3.38;;;21.00;99.90;;;;;;5113562;28;20096;-85
2023/10/14 03:30:55;;;;;;;5.53;2.22;;;20.10;99.90;;;;;;5112631;28;20491;-86
2023/10/14 03:33:22;;;;;;;3.78;1.77;;;19.50;99.90;;;;;;5098968;28;20606;-86
2023/10/14 03:36:05;;;;;;;6.35;1.85;;;19.10;99.90;;;;;;5099612;28;20127;-79
2023/10/14 03:43:54;;;;;;;7.00;1.70;;;18.70;99.90;;;;;;5110339;28;20024;-85
2023/10/14 03:46:24;;;;;;;7.30;1.70;;;18.70;99.90;;;;;;5106952;28;20113;-85
2023/10/14 03:48:54;;;;;;;3.47;1.45;;;18.70;99.90;;;;;;5101900;28;20036;-85
2023/10/14 03:51:27;;;;;;;3.95;1.83;;;18.60;99.90;;;;;;5098060;28;20035;-85
2023/10/14 03:53:58;;;;;;;7.43;1.55;;;18.60;99.90;;;;;;5093181;28;20042;-84
2023/10/14 03:56:29;;;;;;;6.87;1.60;;;18.60;99.90;;;;;;5098879;28;20582;-85
2023/10/14 03:59:01;;;;;;;10.38;1.90;;;18.50;99.90;;;;;;5101577;28;20024;-85
2023/10/14 04:04:24;;;;;;;5.45;2.22;;;18.50;99.90;;;;;;5073143;28;20101;-85
2023/10/14 04:06:55;;;;;;;8.38;1.95;;;18.50;99.90;;;;;;5092880;28;20463;-86
2023/10/14 04:09:36;;;;;;;5.07;1.40;;;18.50;99.90;;;;;;5107134;28;20038;-87
2023/10/14 04:12:07;;;;;;;7.82;1.92;;;18.50;99.90;;;;;;5112886;28;20024;-85
2023/10/14 04:14:35;;;;;;;6.53;1.60;;;18.50;99.90;;;;;;5106426;28;20020;-89
2023/10/14 04:17:10;;;;;;;9.32;1.90;;;18.50;99.90;;;;;;5092394;28;20404;-89
2023/10/14 04:19:47;;;;;;;6.35;1.75;;;18.50;99.90;;;;;;5109297;28;20023;-90
2023/10/14 04:24:50;;;;;;;4.50;1.80;;;18.60;99.90;;;;;;5072925;28;20025;-86
2023/10/14 04:27:30;;;;;;;7.68;2.17;;;18.60;99.90;;;;;;5072241;28;20035;-85
2023/10/14 04:35:26;;;;;;;5.50;2.10;;;18.60;99.90;;;;;;5099555;28;20044;-85
2023/10/14 04:37:52;;;;;;;7.07;1.77;;;18.60;99.90;;;;;;5108667;28;20024;-85
2023/10/14 04:40:37;;;;;;;5.20;2.03;;;18.60;99.90;;;;;;5097521;28;20388;-86
2023/10/14 04:45:57;;;;;;;5.95;2.10;;;18.70;99.90;;;;;;5096787;28;20119;-80
2023/10/14 04:48:28;;;;;;;4.63;1.73;;;18.70;99.90;;;;;;5112234;28;20073;-86
2023/10/14 04:50:56;;;;;;;7.35;1.83;;;18.70;99.90;;;;;;5101888;28;20031;-86
2023/10/14 04:53:26;;;;;;;4.25;1.50;;;18.70;99.90;;;;;;5106295;28;20036;-85
2023/10/14 04:55:52;;;;;;;5.72;2.13;;;18.70;99.90;;;;;;5095651;28;20028;-86
2023/10/14 04:58:24;;;;;;;4.13;1.48;;;18.70;99.90;;;;;;5113540;28;20024;-87
2023/10/14 05:00:52;;;;;;;6.25;1.90;;;18.60;99.90;;;;;;5111909;28;20020;-87
2023/10/14 05:03:20;;;;;;;5.78;1.60;;;18.60;99.90;;;;;;5101556;28;20036;-86
2023/10/14 05:05:56;;;;;;;5.57;2.08;;;18.70;99.90;;;;;;5103604;28;20103;-80
2023/10/14 05:08:27;;;;;;;4.55;1.60;;;18.70;99.90;;;;;;5110349;28;20024;-85
2023/10/14 05:10:53;;;;;;;4.85;1.42;;;18.70;99.90;;;;;;5105362;28;20114;-86
2023/10/14 05:13:25;;;;;;;4.30;1.58;;;18.70;99.90;;;;;;5101635;28;20119;-87
2023/10/14 05:16:03;;;;;;;5.53;2.13;;;18.70;99.90;;;;;;5113423;28;20027;-85
2023/10/14 05:18:28;;;;;;;5.32;1.40;;;18.60;99.90;;;;;;5110179;28;20040;-87
2023/10/14 05:21:03;;;;;;;5.68;1.40;;;18.70;99.90;;;;;;5108090;28;20032;-88
2023/10/14 05:23:32;;;;;;;4.40;1.60;;;18.70;99.90;;;;;;5105991;28;20024;-88
2023/10/14 05:25:59;;;;;;;5.40;1.20;;;18.70;99.90;;;;;;5111039;28;20451;-86
2023/10/14 05:28:29;;;;;;;4.50;1.58;;;18.70;99.90;;;;;;5123472;28;20376;-85
2023/10/14 05:31:05;;;;;;;5.93;1.63;;;18.70;99.90;;;;;;5103319;28;20031;-84
2023/10/14 05:33:33;;;;;;;5.50;1.20;;;18.70;99.90;;;;;;5104936;28;20020;-86
2023/10/14 05:36:01;;;;;;;4.82;2.13;;;18.70;99.90;;;;;;5105969;28;20066;-85
2023/10/14 05:38:27;;;;;;;3.83;1.23;;;18.70;99.90;;;;;;5109217;28;20020;-84
2023/10/14 05:40:55;;;;;;;4.20;1.00;;;18.70;99.90;;;;;;5106713;28;20543;-87
2023/10/14 05:43:23;;;;;;;3.03;1.30;;;18.70;99.90;;;;;;5111384;28;20031;-88
2023/10/14 05:45:48;;;;;;;3.97;1.02;;;18.70;99.90;;;;;;5123652;28;20426;-80
2023/10/14 05:48:14;;;;;;;4.20;1.15;;;18.70;99.90;;;;;;5110581;28;20117;-85
2023/10/14 05:50:40;;;;;;;3.03;0.85;;;18.70;99.90;;;;;;5118144;28;20028;-86
2023/10/14 05:53:08;;;;;;;2.35;1.08;;;18.70;99.90;;;;;;5116853;28;20031;-86
2023/10/14 05:55:35;;;;;;;4.35;1.00;;;18.70;99.90;;;;;;5100768;28;20107;-84
2023/10/14 05:58:00;;;;;;;3.40;1.10;;;18.70;99.90;;;;;;5111747;28;20031;-86
2023/10/14 06:00:27;;;;;;;3.92;1.30;;;18.70;99.90;;;;;;5097333;28;20028;-87
2023/10/14 06:02:54;;;;;;;2.08;1.20;;;18.70;99.90;;;;;;5094186;28;20035;-85
2023/10/14 06:05:22;;;;;;;4.20;1.20;;;18.80;99.90;;;;;;5100998;28;20023;-87
2023/10/14 06:07:47;;;;;;;6.20;0.98;;;18.80;99.90;;;;;;5112014;28;20557;-84
2023/10/14 06:10:23;;;;;;;4.85;1.33;;;18.80;99.90;;;;;;5114988;28;20076;-86
2023/10/14 06:12:50;;;;;;;3.38;1.00;;;18.80;99.90;;;;;;5115599;28;20031;-86
2023/10/14 06:15:17;;;;;;;4.15;1.17;;;18.90;99.90;;;;;;5100578;28;20091;-85
2023/10/14 06:17:49;;;;;;;3.72;1.08;;;18.90;99.90;;;;;;5112836;28;20031;-86
2023/10/14 06:20:16;;;;;;;3.65;0.80;;;18.90;99.90;;;;;;5109421;28;20016;-86
2023/10/14 06:22:43;;;;;;;5.95;1.00;;;18.90;99.90;;;;;;5094207;28;20116;-87
2023/10/14 06:25:15;;;;;;;3.15;0.90;;;19.00;99.90;;;;;;5091785;28;20032;-86
2023/10/14 06:27:48;;;;;;;5.00;0.82;;;19.00;99.90;;;;;;5088480;28;20036;-86
2023/10/14 06:30:20;;;;;;;3.97;1.35;;;19.00;99.90;;;;;;5080364;28;20062;-86
2023/10/14 06:32:49;;;;;;;3.92;1.10;;;19.00;99.90;;;;;;5090524;28;20488;-82
2023/10/14 06:35:17;;;;;;;2.35;0.70;;;19.00;99.90;;;;;;5083933;28;20040;-85
2023/10/14 06:37:45;;;;;;;4.22;1.20;;;19.00;99.90;;;;;;5111454;28;20028;-89
2023/10/14 06:40:13;;;;;;;4.85;1.10;;;19.00;99.90;;;;;;5093102;28;20030;-87
2023/10/14 06:42:43;;;;;;;2.17;0.70;;;19.00;99.90;;;;;;5102333;28;20027;-92
2023/10/14 06:45:10;;;;;;;1.25;0.60;;;19.10;99.90;;;;;;5101111;28;20109;-87
2023/10/14 06:47:36;;;;;;;2.05;0.60;;;19.10;99.90;;;;;;5111228;28;20049;-92
2023/10/14 06:50:02;;;;;;;3.30;0.50;;;19.10;99.90;;;;;;5114624;28;20027;-90
2023/10/14 06:52:27;;;;;;;4.47;0.60;;;19.10;99.90;;;;;;5106849;28;20038;-91
2023/10/14 06:54:53;;;;;;;2.42;0.50;;;19.10;99.90;;;;;;5103196;28;20027;-88
2023/10/14 06:57:18;;;;;;;3.25;0.70;;;19.10;99.90;;;;;;5099869;28;20449;-86
2023/10/14 06:59:45;;;;;;;2.72;0.50;;;19.10;99.90;;;;;;5088346;28;20078;-80
2023/10/14 07:02:11;;;;;;;3.53;0.45;;;19.10;99.90;;;;;;5096767;28;20114;-87
2023/10/14 07:04:40;;;;;;;2.55;0.65;;;19.10;99.90;;;;;;5105518;28;20063;-86
2023/10/14 07:07:09;;;;;;;3.85;0.55;;;19.10;99.90;;;;;;5105739;28;20437;-87
2023/10/14 07:09:37;;;;;;;0.95;0.70;;;19.10;99.90;;;;;;5096702;28;20036;-87
2023/10/14 07:12:13;;;;;;;2.75;0.45;;;19.10;99.90;;;;;;5109054;28;20024;-84
2023/10/14 07:14:39;;;;;;;3.63;0.47;;;19.10;99.90;;;;;;5094183;28;20020;-86
2023/10/14 07:17:07;;;;;;;1.08;0.45;;;19.10;99.90;;;;;;5104290;28;20047;-85
2023/10/14 07:19:35;;;;;;;1.38;0.40;;;19.10;99.90;;;;;;5098219;28;20016;-84
2023/10/14 07:22:07;;;;;;;2.17;0.55;;;19.10;99.90;;;;;;5108906;28;20032;-85
2023/10/14 07:24:33;;;;;;;1.13;0.30;;;19.10;99.90;;;;;;5100458;28;20088;-86
2023/10/14 07:26:59;;;;;;;2.03;0.30;;;19.10;99.90;;;;;;5100695;28;20460;-85
2023/10/14 07:29:24;;;;;;;2.78;0.73;;;19.10;99.90;;;;;;5106614;28;20023;-87
2023/10/14 07:31:50;;;;;;;2.17;0.52;;;19.00;99.90;;;;;;5108458;28;20027;-83
2023/10/14 07:34:16;;;;;;;4.18;0.43;;;18.90;99.90;;;;;;5097761;28;20047;-84
2023/10/14 07:36:42;;;;;;;5.07;0.90;;;18.90;99.90;;;;;;5102619;28;20426;-84
2023/10/14 07:41:52;;;;;;;2.40;0.45;;;18.70;99.90;;;;;;5110297;28;20088;-85
2023/10/14 07:44:22;;;;;;;1.20;0.30;;;18.40;99.90;;;;;;5092358;28;20032;-85
2023/10/14 07:46:49;;;;;;;2.22;0.38;;;18.10;99.90;;;;;;5092104;28;20105;-80
2023/10/14 07:49:15;;;;;;;1.92;0.25;;;18.10;99.90;;;;;;5106111;28;20059;-86
2023/10/14 07:51:42;;;;;;;1.00;0.25;;;18.00;99.90;;;;;;5095742;28;20082;-88
2023/10/14 07:54:08;;;;;;;1.05;0.40;;;18.00;99.90;;;;;;5097444;28;20034;-87
2023/10/14 07:56:34;;;;;;;0.47;0.20;;;18.00;99.90;;;;;;5106196;28;20020;-86
2023/10/14 07:59:01;;;;;;;0.98;0.30;;;18.00;99.90;;;;;;5091862;28;20461;-85
2023/10/14 08:01:27;;;;;;;2.25;0.20;;;18.00;99.90;;;;;;5107984;28;20058;-85
2023/10/14 08:03:56;;;;;;;2.25;0.40;;;18.00;99.90;;;;;;5093489;28;20451;-85
2023/10/14 08:06:21;;;;;;;1.55;0.20;;;18.00;99.90;;;;;;5099776;28;20106;-84
2023/10/14 08:08:47;;;;;;;1.48;0.30;;;17.90;99.90;;;;;;5109895;28;20139;-81
2023/10/14 08:11:14;;;;;;;1.73;0.28;;;17.90;99.90;;;;;;5099602;28;20028;-86
2023/10/14 08:13:40;;;;;;;4.05;0.60;;;18.00;99.90;;;;;;5092840;28;20461;-86
2023/10/14 08:16:07;;;;;;;2.33;0.22;;;18.00;99.90;;;;;;5113775;28;20031;-87
2023/10/14 08:18:34;;;;;;;5.00;0.32;;;18.00;99.90;;;;;;5112879;28;20069;-90
2023/10/14 08:21:00;;;;;;;1.90;0.30;;;18.00;99.90;;;;;;5101388;28;20038;-92
2023/10/14 08:23:28;;;;;;;1.33;0.20;;;17.90;99.90;;;;;;5107937;28;20028;-93
2023/10/14 08:25:54;;;;;;;0.63;0.22;;;17.90;99.90;;;;;;5095337;28;20055;-90
2023/10/14 08:28:27;;;;;;;2.00;0.40;;;17.90;99.90;;;;;;5113277;28;20523;-89
2023/10/14 08:30:55;;;;;;;4.07;2.03;;;17.90;99.90;;;;;;5109890;28;20028;-88
2023/10/14 08:33:23;;;;;;;4.40;2.40;;;17.90;99.90;;;;;;5098214;28;20039;-87
2023/10/14 08:35:50;;;;;;;4.18;2.10;;;17.90;99.90;;;;;;5088995;28;20509;-80
2023/10/14 08:38:33;;;;;;;3.28;1.75;;;17.80;99.90;;;;;;5115863;28;20027;-87
2023/10/14 08:41:00;;;;;;;5.00;1.35;;;17.90;99.90;;;;;;5116224;28;20559;-91
2023/10/14 08:43:26;;;;;;;7.88;1.20;;;17.90;99.90;;;;;;5117135;28;20479;-89
2023/10/14 08:45:56;;;;;;;9.48;1.30;;;18.00;99.90;;;;;;5116174;28;20114;-89
2023/10/14 08:48:26;;;;;;;7.25;1.13;;;18.00;99.90;;;;;;5110762;28;20020;-90
2023/10/14 08:50:56;;;;;;;6.10;0.80;;;17.90;99.90;;;;;;5096975;28;20073;-91
2023/10/14 08:53:24;;;;;;;3.20;0.50;;;18.00;99.90;;;;;;5098652;28;20075;-86
2023/10/14 08:55:52;;;;;;;1.75;0.32;;;18.00;99.90;;;;;;5084460;28;20024;-85
2023/10/14 08:58:22;;;;;;;1.38;0.20;;;18.10;99.90;;;;;;5088392;28;20155;-87
2023/10/14 09:00:50;;;;;;;3.33;0.20;;;18.10;99.90;;;;;;5096355;28;20047;-80
2023/10/14 09:03:16;;;;;;;2.65;0.40;;;18.00;99.90;;;;;;5110400;28;20032;-85
2023/10/14 09:05:46;;;;;;;2.25;0.30;;;17.90;99.90;;;;;;5105079;28;20020;-86
2023/10/14 09:08:17;;;;;;;2.83;0.50;;;17.90;99.90;;;;;;5101375;28;20056;-86
2023/10/14 09:10:44;;;;;;;1.58;0.25;;;18.00;99.90;;;;;;5117347;28;20020;-86
2023/10/14 09:13:11;;;;;;;1.52;0.30;;;17.90;99.90;;;;;;5115616;28;20042;-87
2023/10/14 09:15:39;;;;;;;2.63;0.30;;;17.90;99.90;;;;;;5116052;28;20023;-87
2023/10/14 09:18:13;;;;;;;1.75;0.30;;;17.90;99.90;;;;;;5082466;28;20593;-88
2023/10/14 09:20:39;;;;;;;1.25;0.22;;;17.90;99.90;;;;;;5107358;28;20028;-86
2023/10/14 09:23:16;;;;;;;2.42;0.20;;;17.90;99.90;;;;;;5094575;28;20206;-90
2023/10/14 09:25:49;;;;;;;1.23;0.20;;;17.90;99.90;;;;;;5109462;28;20035;-86
2023/10/14 09:28:19;;;;;;;1.15;0.35;;;17.90;99.90;;;;;;5101812;28;20019;-88
2023/10/14 09:30:45;;;;;;;0.75;0.17;;;17.90;99.90;;;;;;5104403;28;20063;-84
2023/10/14 09:33:15;;;;;;;0.75;0.20;;;17.80;99.90;;;;;;5108757;28;20059;-88
2023/10/14 09:35:44;;;;;;;1.33;0.17;;;17.90;99.90;;;;;;5105468;28;20048;-85
2023/10/14 09:38:14;;;;;;;1.73;0.20;;;17.90;99.90;;;;;;5094680;28;20123;-85
2023/10/14 09:40:40;;;;;;;2.15;0.30;;;17.90;99.90;;;;;;5095365;28;20146;-86
2023/10/14 09:43:06;;;;;;;1.27;0.30;;;17.90;99.90;;;;;;5094671;28;20127;-86
2023/10/14 09:45:33;;;;;;;1.17;0.20;;;17.90;99.90;;;;;;5111050;28;20027;-89
2023/10/14 09:48:00;;;;;;;2.17;0.40;;;17.90;99.90;;;;;;5094793;28;20028;-87
2023/10/14 09:50:27;;;;;;;0.95;0.32;;;18.00;99.90;;;;;;5101653;28;20026;-85
2023/10/14 09:52:54;;;;;;;0.70;0.30;;;18.00;99.90;;;;;;5105718;28;20028;-88
2023/10/14 09:55:20;;;;;;;1.75;0.30;;;18.00;99.90;;;;;;5109388;28;20107;-88
2023/10/14 09:57:47;;;;;;;2.00;0.40;;;17.90;99.90;;;;;;5098150;28;20024;-81
2023/10/14 10:00:16;;;;;;;1.13;0.40;;;17.90;99.90;;;;;;5115409;28;20028;-88
2023/10/14 10:02:45;;;;;;;3.72;0.45;;;18.00;99.90;;;;;;5115644;28;20129;-88
2023/10/14 10:05:17;;;;;;;1.15;0.20;;;17.80;99.90;;;;;;5102263;28;20020;-87
2023/10/14 10:07:54;;;;;;;1.33;0.30;;;17.80;99.90;;;;;;5094884;28;20028;-88
2023/10/14 10:10:28;;;;;;;0.82;0.38;;;17.80;99.90;;;;;;5095582;28;20028;-89
2023/10/14 10:12:55;;;;;;;1.02;0.40;;;17.80;99.90;;;;;;5104675;28;20032;-89
2023/10/14 10:15:25;;;;;;;0.65;0.40;;;17.80;99.90;;;;;;5103804;28;20017;-88
2023/10/14 10:18:05;;;;;;;2.28;0.32;;;17.80;99.90;;;;;;5074236;28;20033;-90
2023/10/14 10:20:35;;;;;;;4.15;0.55;;;17.80;99.90;;;;;;5098770;28;20027;-91
2023/10/14 10:23:02;;;;;;;0.60;0.40;;;17.70;99.90;;;;;;5098906;28;20036;-90
2023/10/14 10:25:37;;;;;;;2.10;0.70;;;17.70;99.90;;;;;;5096384;28;20024;-87
2023/10/14 10:28:25;;;;;;;1.25;0.43;;;17.70;99.90;;;;;;5082659;28;20021;-92
2023/10/14 10:30:55;;;;;;;1.13;0.50;;;17.80;99.90;;;;;;5075546;28;20024;-91
2023/10/14 10:33:23;;;;;;;1.83;0.43;;;17.80;99.90;;;;;;5074677;28;20032;-91
2023/10/14 10:36:04;;;;;;;2.30;0.57;;;17.80;99.90;;;;;;5073790;28;20124;-91
2023/10/14 10:38:36;;;;;;;1.38;0.60;;;17.80;99.90;;;;;;5074684;28;20031;-92
2023/10/14 10:41:19;;;;;;;3.80;0.60;;;17.70;99.90;;;;;;5075349;28;20112;-89
2023/10/14 10:43:46;;;;;;;1.25;0.40;;;17.70;99.90;;;;;;5073994;28;20501;-89
2023/10/14 10:46:40;;;;;;;0.73;0.38;;;17.70;99.90;;;;;;5074005;28;20032;-87
2023/10/14 10:49:06;;;;;;;1.45;0.30;;;17.50;99.90;;;;;;5073394;28;20024;-88
2023/10/14 10:51:36;;;;;;;0.20;0.20;;;17.60;99.90;;;;;;5074212;28;20426;-88
2023/10/14 10:54:02;;;;;;;0.30;0.30;;;17.60;99.90;;;;;;5073793;28;20031;-88
2023/10/14 10:56:29;;;;;;;0.80;0.38;;;17.50;99.90;;;;;;5074951;28;20547;-88
2023/10/14 10:58:58;;;;;;;1.27;0.20;;;17.50;99.90;;;;;;5072843;28;20222;-88
2023/10/14 11:01:23;;;;;;;0.40;0.40;;;17.30;99.90;;;;;;5073387;28;20028;-87
2023/10/14 11:03:49;;;;;;;0.73;0.40;;;17.20;99.90;;;;;;5074441;28;20028;-87
2023/10/14 11:06:17;;;;;;;0.40;0.32;;;17.10;99.90;;;;;;5074936;28;20095;-88
2023/10/14 11:08:46;;;;;;;0.90;0.40;;;17.20;99.90;;;;;;5073812;28;20024;-87
2023/10/14 11:11:12;;;;;;;0.70;0.28;;;17.00;99.90;;;;;;5074383;28;20021;-87
2023/10/14 11:13:39;;;;;;;1.23;0.40;;;17.10;99.90;;;;;;5077543;28;20116;-88
2023/10/14 11:16:14;;;;;;;0.50;0.40;;;17.20;99.90;;;;;;5072903;28;20028;-87
2023/10/14 11:18:49;;;;;;;0.73;0.30;;;17.20;99.90;;;;;;5073722;28;20029;-88
2023/10/14 11:21:16;;;;;;;1.05;0.45;;;17.30;99.90;;;;;;5073554;28;20457;-87
2023/10/14 11:23:45;;;;;;;0.30;0.30;;;17.30;99.90;;;;;;5074468;28;20039;-84
2023/10/14 11:26:12;;;;;;;0.82;0.47;;;17.40;99.90;;;;;;5089930;28;20031;-88
2023/10/14 11:28:45;;;;;;;0.47;0.40;;;17.30;99.90;;;;;;5105297;28;20051;-87
2023/10/14 11:31:12;;;;;;;1.08;0.28;;;17.20;99.90;;;;;;5097320;28;20162;-95
2023/10/14 11:33:37;;;;;;;1.20;0.30;;;17.10;99.90;;;;;;5095312;28;20031;-91
2023/10/14 11:36:04;;;;;;;0.35;0.30;;;17.10;99.90;;;;;;5100935;28;20047;-93
2023/10/14 11:38:31;;;;;;;0.68;0.35;;;17.10;99.90;;;;;;5104390;28;20035;-94
2023/10/14 11:41:02;;;;;;;0.40;0.20;;;17.10;99.90;;;;;;5108808;28;20021;-89
2023/10/14 11:43:28;;;;;;;0.60;0.20;;;17.20;99.90;;;;;;5097091;28;20039;-85
2023/10/14 11:45:56;;;;;;;3.80;0.45;;;17.20;99.90;;;;;;5098917;28;20035;-86
2023/10/14 11:48:26;;;;;;;3.28;0.50;;;17.30;99.90;;;;;;5104822;28;20031;-85
2023/10/14 11:50:58;;;;;;;2.20;1.20;;;17.30;99.90;;;;;;5106345;28;20024;-85
2023/10/14 11:53:29;;;;;;;2.00;0.70;;;17.40;99.90;;;;;;5096549;28;20411;-87
2023/10/14 11:55:59;;;;;;;1.35;0.90;;;17.30;99.90;;;;;;5105999;28;20031;-87
2023/10/14 11:58:40;;;;;;;1.33;0.60;;;17.30;99.90;;;;;;5103589;28;20462;-87
2023/10/14 12:01:05;;;;;;;3.85;0.70;;;17.30;99.90;;;;;;5103759;28;20083;-84
2023/10/14 12:03:31;;;;;;;0.80;0.60;;;17.40;99.90;;;;;;5095830;28;20110;-84
2023/10/14 12:05:58;;;;;;;1.60;0.57;;;17.30;99.90;;;;;;5089818;28;20028;-83
2023/10/14 12:08:26;;;;;;;1.00;0.50;;;17.20;99.90;;;;;;5103758;28;20104;-83
2023/10/14 12:10:57;;;;;;;3.58;0.50;;;17.30;99.90;;;;;;5091801;28;20070;-83
2023/10/14 12:13:23;;;;;;;1.33;0.50;;;17.30;99.90;;;;;;5113352;28;20027;-83
2023/10/14 12:15:50;;;;;;;0.88;0.40;;;17.30;99.90;;;;;;5104315;28;20031;-85
2023/10/14 12:18:16;;;;;;;1.08;0.50;;;17.30;99.90;;;;;;5110415;28;20028;-91
2023/10/14 12:20:46;;;;;;;0.57;0.32;;;17.30;99.90;;;;;;5098701;28;20048;-85
2023/10/14 12:23:19;;;;;;;1.08;0.38;;;17.30;99.90;;;;;;5114301;28;20035;-86
2023/10/14 12:25:48;;;;;;;0.90;0.40;;;17.30;99.90;;;;;;5094602;28;20024;-85
2023/10/14 12:28:27;;;;;;;1.95;0.40;;;17.20;99.90;;;;;;5109473;28;20024;-85
2023/10/14 12:30:56;;;;;;;0.93;0.40;;;17.30;99.90;;;;;;5110975;28;20028;-84
2023/10/14 12:33:22;;;;;;;1.60;0.40;;;17.30;99.90;;;;;;5100316;28;20032;-83
2023/10/14 12:35:51;;;;;;;0.85;0.40;;;17.40;99.90;;;;;;5112320;28;20510;-85
2023/10/14 12:38:22;;;;;;;1.17;0.40;;;17.40;99.90;;;;;;5102858;28;20026;-85
2023/10/14 12:40:49;;;;;;;1.30;0.40;;;17.40;99.90;;;;;;5117839;28;20027;-88
2023/10/14 12:43:27;;;;;;;0.30;0.28;;;17.50;99.90;;;;;;5099968;28;20032;-84
2023/10/14 12:45:59;;;;;;;0.90;0.40;;;17.30;99.90;;;;;;5096869;28;20028;-84
2023/10/14 12:48:25;;;;;;;2.25;0.60;;;17.40;99.90;;;;;;5108660;28;20039;-85
2023/10/14 12:50:51;;;;;;;3.28;0.60;;;17.50;99.90;;;;;;5106121;28;20104;-84
2023/10/14 12:53:17;;;;;;;3.03;0.45;;;17.60;99.90;;;;;;5098942;28;20078;-84
2023/10/14 12:55:44;;;;;;;5.15;0.50;;;17.60;99.90;;;;;;5108725;28;20027;-84
2023/10/14 12:58:12;;;;;;;3.15;0.60;;;17.70;99.90;;;;;;5120002;28;20020;-88
2023/10/14 13:00:38;;;;;;;0.75;0.40;;;17.90;99.90;;;;;;5106568;28;20028;-88
2023/10/14 13:03:09;;;;;;;2.88;0.60;;;18.30;99.90;;;;;;5114445;28;20024;-83
2023/10/14 13:05:35;;;;;;;1.38;0.63;;;18.80;99.90;;;;;;5115513;28;20020;-85
2023/10/14 13:08:02;;;;;;;2.10;0.60;;;18.90;99.90;;;;;;5108961;28;20040;-83
2023/10/14 13:10:28;;;;;;;1.40;0.50;;;19.50;99.70;;;;;;5105438;28;20173;-87
2023/10/14 13:12:58;;;;;;;1.75;0.70;;;19.90;99.50;;;;;;5108899;28;20055;-85
2023/10/14 13:15:30;;;;;;;3.25;0.50;;;19.60;99.90;;;;;;5126897;28;20114;-90
2023/10/14 13:18:07;;;;;;;3.28;0.70;;;19.30;99.90;;;;;;5103733;28;20032;-88
2023/10/14 13:20:36;;;;;;;2.72;0.60;;;19.10;99.90;;;;;;5099501;28;20441;-89
2023/10/14 13:23:08;;;;;;;4.63;0.70;;;18.80;99.90;;;;;;5112477;28;20072;-89
2023/10/14 13:25:36;;;;;;;3.05;0.80;;;18.70;99.50;;;;;;5107993;28;20089;-88
2023/10/14 13:28:08;;;;;;;1.52;0.73;;;18.50;99.20;;;;;;5125056;28;20024;-88
2023/10/14 13:30:39;;;;;;;4.50;0.88;;;19.00;98.60;;;;;;5122708;28;20055;-86
2023/10/14 13:33:08;;;;;;;2.63;0.73;;;19.40;97.60;;;;;;5108412;27;20028;-89
2023/10/14 13:35:33;;;;;;;1.98;0.70;;;19.70;95.90;;;;;;5102132;28;20185;-88
2023/10/14 13:38:00;;;;;;;2.00;0.80;;;20.20;95.80;;;;;;5110030;28;20052;-87
2023/10/14 13:40:26;;;;;;;3.08;0.90;;;20.70;94.70;;;;;;5105446;28;20024;-90